createdAt,value
2023-01-08T00:01:08.669Z,3.67
2023-01-08T00:03:36.494Z,3.00
2023-01-08T00:06:05.558Z,2.90
2023-01-08T00:08:32.751Z,2.80
2023-01-08T00:10:59.328Z,3.10
2023-01-08T00:13:26.043Z,2.80
2023-01-08T00:15:52.887Z,3.50
2023-01-08T00:18:19.580Z,3.27
2023-01-08T00:20:46.817Z,2.63
2023-01-08T00:23:14.309Z,3.43
2023-01-08T00:25:40.672Z,2.90
2023-01-08T00:28:07.117Z,3.37
2023-01-08T00:30:33.839Z,2.70
2023-01-08T00:33:00.278Z,2.70
2023-01-08T00:35:26.613Z,2.87
2023-01-08T00:37:53.052Z,3.00
2023-01-08T00:40:19.384Z,2.70
2023-01-08T00:42:45.741Z,3.53
2023-01-08T00:45:12.078Z,3.60
2023-01-08T00:47:38.484Z,3.07
2023-01-08T00:50:05.139Z,2.90
2023-01-08T00:52:31.506Z,2.80
2023-01-08T00:54:57.873Z,2.80
2023-01-08T00:57:24.631Z,3.03
2023-01-08T00:59:50.997Z,3.10
2023-01-08T01:02:17.574Z,3.20
2023-01-08T01:04:43.974Z,3.00
2023-01-08T01:07:10.338Z,3.27
2023-01-08T01:09:37.500Z,2.80
2023-01-08T01:12:04.095Z,3.50
2023-01-08T01:14:30.441Z,3.37
2023-01-08T01:16:56.876Z,3.07
2023-01-08T01:19:23.954Z,2.80
2023-01-08T01:21:50.293Z,2.60
2023-01-08T01:24:17.029Z,3.20
2023-01-08T01:26:43.453Z,3.10
2023-01-08T01:29:09.884Z,2.97
2023-01-08T01:31:36.225Z,2.80
2023-01-08T01:34:03.344Z,2.93
2023-01-08T01:36:29.688Z,2.80
2023-01-08T01:38:58.067Z,3.20
2023-01-08T01:41:39.339Z,3.03
2023-01-08T01:44:43.411Z,3.40
2023-01-08T01:47:28.633Z,3.00
2023-01-08T01:50:16.953Z,3.03
2023-01-08T01:52:55.071Z,3.30
2023-01-08T01:55:21.412Z,3.07
2023-01-08T01:57:58.242Z,3.37
2023-01-08T02:00:25.963Z,2.90
2023-01-08T02:02:53.060Z,3.13
2023-01-08T02:05:19.750Z,3.40
2023-01-08T02:07:58.005Z,2.90
2023-01-08T02:10:36.982Z,2.70
2023-01-08T02:13:27.721Z,3.23
2023-01-08T02:16:06.023Z,3.00
2023-01-08T02:18:51.297Z,3.53
2023-01-08T02:21:28.693Z,2.93
2023-01-08T02:24:02.939Z,2.97
2023-01-08T02:26:32.318Z,2.80
2023-01-08T02:29:09.216Z,2.97
2023-01-08T02:31:40.602Z,2.90
2023-01-08T02:34:07.316Z,3.30
2023-01-08T02:36:37.785Z,3.30
2023-01-08T02:39:31.847Z,3.07
2023-01-08T02:42:04.959Z,3.40
2023-01-08T02:44:41.444Z,3.00
2023-01-08T02:47:16.045Z,2.87
2023-01-08T02:49:46.995Z,2.57
2023-01-08T02:52:15.911Z,2.87
2023-01-08T02:54:44.352Z,3.40
2023-01-08T02:57:13.773Z,3.23
2023-01-08T02:59:44.342Z,3.23
2023-01-08T03:02:11.955Z,2.40
2023-01-08T03:04:46.738Z,3.20
2023-01-08T03:07:13.199Z,2.57
2023-01-08T03:09:39.673Z,2.87
2023-01-08T03:12:15.059Z,3.40
2023-01-08T03:14:47.001Z,3.27
2023-01-08T03:17:19.597Z,3.13
2023-01-08T03:19:53.604Z,2.70
2023-01-08T03:22:21.297Z,2.93
2023-01-08T03:24:51.312Z,3.33
2023-01-08T03:27:21.647Z,2.70
2023-01-08T03:29:52.522Z,2.77
2023-01-08T03:32:21.144Z,3.13
2023-01-08T03:34:50.062Z,3.33
2023-01-08T03:37:23.194Z,3.20
2023-01-08T03:39:55.691Z,3.20
2023-01-08T03:42:23.334Z,3.60
2023-01-08T03:44:49.744Z,3.10
2023-01-08T03:47:16.444Z,3.00
2023-01-08T03:49:44.331Z,3.00
2023-01-08T03:52:27.608Z,3.00
2023-01-08T03:54:54.061Z,3.00
2023-01-08T03:57:20.587Z,3.20
2023-01-08T03:59:47.083Z,3.13
2023-01-08T04:02:13.642Z,2.53
2023-01-08T04:04:40.341Z,3.30
2023-01-08T04:07:07.778Z,3.60
2023-01-08T04:09:34.212Z,2.93
2023-01-08T04:12:00.755Z,2.93
2023-01-08T04:14:27.330Z,3.20
2023-01-08T04:16:53.706Z,2.93
2023-01-08T04:19:20.087Z,2.70
2023-01-08T04:21:46.433Z,3.03
2023-01-08T04:24:13.524Z,2.67
2023-01-08T04:26:39.857Z,2.70
2023-01-08T04:29:06.316Z,3.00
2023-01-08T04:31:32.840Z,3.27
2023-01-08T04:33:59.589Z,3.07
2023-01-08T04:36:25.934Z,2.90
2023-01-08T04:38:52.317Z,3.10
2023-01-08T04:41:18.655Z,2.70
2023-01-08T04:43:45.256Z,3.17
2023-01-08T04:46:11.630Z,3.00
2023-01-08T04:48:38.101Z,3.50
2023-01-08T04:51:05.084Z,2.60
2023-01-08T04:53:35.407Z,3.13
2023-01-08T04:56:06.853Z,2.90
2023-01-08T04:58:33.826Z,3.13
2023-01-08T05:01:00.180Z,2.63
2023-01-08T05:03:26.890Z,2.67
2023-01-08T05:05:53.258Z,3.03
2023-01-08T05:08:19.624Z,3.00
2023-01-08T05:10:45.953Z,2.80
2023-01-08T05:13:12.314Z,3.00
2023-01-08T05:15:38.700Z,2.90
2023-01-08T05:18:05.767Z,2.53
2023-01-08T05:20:33.270Z,2.80
2023-01-08T05:22:59.667Z,3.20
2023-01-08T05:25:26.099Z,3.50
2023-01-08T05:27:52.753Z,3.03
2023-01-08T05:30:19.149Z,2.90
2023-01-08T05:32:45.501Z,2.60
2023-01-08T05:35:11.847Z,2.80
2023-01-08T05:37:38.249Z,4.27
2023-01-08T05:40:06.371Z,3.20
2023-01-08T05:42:36.657Z,3.03
2023-01-08T05:45:07.823Z,2.93
2023-01-08T05:47:34.845Z,3.40
2023-01-08T05:50:01.489Z,3.03
2023-01-08T05:52:28.225Z,3.53
2023-01-08T05:54:54.698Z,3.80
2023-01-08T05:57:21.080Z,3.27
2023-01-08T05:59:47.459Z,2.90
2023-01-08T06:02:13.843Z,3.57
2023-01-08T06:04:40.353Z,3.30
2023-01-08T06:07:06.720Z,3.27
2023-01-08T06:09:33.485Z,3.33
2023-01-08T06:11:59.829Z,2.90
2023-01-08T06:14:26.204Z,3.43
2023-01-08T06:16:52.597Z,3.23
2023-01-08T06:19:19.086Z,2.87
2023-01-08T06:21:45.557Z,3.33
2023-01-08T06:24:12.084Z,3.20
2023-01-08T06:26:38.440Z,3.13
2023-01-08T06:29:04.828Z,2.90
2023-01-08T06:31:31.221Z,3.13
2023-01-08T06:33:57.601Z,2.93
2023-01-08T06:36:23.970Z,3.27
2023-01-08T06:38:50.355Z,3.17
2023-01-08T06:41:17.331Z,2.80
2023-01-08T06:43:43.700Z,2.97
2023-01-08T06:46:10.564Z,2.80
2023-01-08T06:48:37.506Z,3.50
2023-01-08T06:51:04.963Z,2.77
2023-01-08T06:53:31.574Z,3.40
2023-01-08T06:55:58.795Z,2.97
2023-01-08T06:58:28.623Z,2.97
2023-01-08T07:00:55.075Z,2.97
2023-01-08T07:03:21.442Z,2.60
2023-01-08T07:05:47.860Z,3.30
2023-01-08T07:08:15.460Z,2.93
2023-01-08T07:10:44.340Z,2.90
2023-01-08T07:13:12.644Z,2.83
2023-01-08T07:15:40.202Z,3.20
2023-01-08T07:18:11.593Z,2.90
2023-01-08T07:20:38.037Z,3.20
2023-01-08T07:23:06.636Z,3.00
2023-01-08T07:25:34.243Z,2.90
2023-01-08T07:28:01.018Z,3.13
2023-01-08T07:30:30.041Z,2.57
2023-01-08T07:33:00.850Z,3.00
2023-01-08T07:35:27.971Z,3.37
2023-01-08T07:37:54.601Z,3.57
2023-01-08T07:40:20.997Z,3.53
2023-01-08T07:42:47.372Z,2.97
2023-01-08T07:45:13.763Z,2.90
2023-01-08T07:47:40.092Z,2.80
2023-01-08T07:50:06.765Z,3.43
2023-01-08T07:52:33.105Z,3.37
2023-01-08T07:54:59.490Z,3.00
2023-01-08T07:57:25.868Z,3.23
2023-01-08T07:59:52.256Z,2.80
2023-01-08T08:02:18.899Z,3.20
2023-01-08T08:04:45.344Z,3.37
2023-01-08T08:07:11.719Z,3.17
2023-01-08T08:09:38.104Z,3.07
2023-01-08T08:12:04.556Z,2.87
2023-01-08T08:14:30.915Z,2.87
2023-01-08T08:16:57.264Z,3.17
2023-01-08T08:19:23.620Z,3.10
2023-01-08T08:21:49.974Z,3.00
2023-01-08T08:24:16.347Z,3.20
2023-01-08T08:26:42.708Z,3.33
2023-01-08T08:29:09.079Z,3.30
2023-01-08T08:31:35.522Z,3.20
2023-01-08T08:34:01.963Z,3.20
2023-01-08T08:36:30.274Z,3.57
2023-01-08T08:38:56.632Z,2.90
2023-01-08T08:41:23.089Z,3.17
2023-01-08T08:43:51.277Z,3.20
2023-01-08T08:46:18.242Z,2.90
2023-01-08T08:48:46.157Z,3.13
2023-01-08T08:51:14.429Z,3.10
2023-01-08T08:53:40.780Z,3.57
2023-01-08T08:56:07.531Z,2.90
2023-01-08T08:58:33.987Z,3.43
2023-01-08T09:01:04.505Z,3.40
2023-01-08T09:03:30.988Z,3.00
2023-01-08T09:05:59.735Z,3.80
2023-01-08T09:08:26.374Z,3.10
2023-01-08T09:10:52.745Z,3.50
2023-01-08T09:13:19.106Z,3.40
2023-01-08T09:15:45.700Z,3.60
2023-01-08T09:18:12.048Z,3.37
2023-01-08T09:20:38.453Z,3.30
2023-01-08T09:23:05.203Z,3.50
2023-01-08T09:25:31.733Z,3.80
2023-01-08T09:28:06.794Z,3.60
2023-01-08T09:30:34.456Z,2.80
2023-01-08T09:33:02.931Z,3.40
2023-01-08T09:35:30.541Z,3.00
2023-01-08T09:37:57.238Z,3.27
2023-01-08T09:40:28.333Z,3.27
2023-01-08T09:43:00.492Z,2.80
2023-01-08T09:45:37.682Z,2.83
2023-01-08T09:48:11.339Z,3.20
2023-01-08T09:50:38.308Z,3.07
2023-01-08T09:53:04.931Z,2.73
2023-01-08T09:55:34.365Z,2.83
2023-01-08T09:58:03.342Z,3.20
2023-01-08T10:00:33.972Z,3.00
2023-01-08T10:03:00.519Z,2.90
2023-01-08T10:05:28.420Z,2.40
2023-01-08T10:07:55.384Z,2.70
2023-01-08T10:10:30.471Z,2.83
2023-01-08T10:12:57.090Z,2.87
2023-01-08T10:15:24.316Z,2.50
2023-01-08T10:18:00.733Z,3.13
2023-01-08T10:20:27.346Z,3.00
2023-01-08T10:22:54.262Z,2.60
2023-01-08T10:25:23.998Z,2.47
2023-01-08T10:27:51.468Z,3.00
2023-01-08T10:30:23.718Z,2.50
2023-01-08T10:32:55.978Z,2.50
2023-01-08T10:35:31.097Z,2.60
2023-01-08T10:37:57.437Z,2.70
2023-01-08T10:40:31.172Z,2.57
2023-01-08T10:43:08.127Z,2.27
2023-01-08T10:45:34.577Z,2.50
2023-01-08T10:48:06.796Z,2.33
2023-01-08T10:50:34.942Z,1.90
2023-01-08T10:53:03.689Z,2.20
2023-01-08T10:55:39.675Z,3.03
2023-01-08T10:58:09.071Z,1.70
2023-01-08T11:00:37.235Z,2.30
2023-01-08T11:03:09.975Z,2.37
2023-01-08T11:05:38.721Z,2.70
2023-01-08T11:08:08.190Z,2.20
2023-01-08T11:10:36.448Z,2.40
2023-01-08T11:13:05.671Z,2.33
2023-01-08T11:15:38.880Z,2.47
2023-01-08T11:18:07.862Z,2.20
2023-01-08T11:20:34.833Z,2.50
2023-01-08T11:23:16.991Z,2.50
2023-01-08T11:25:51.175Z,2.63
2023-01-08T11:28:26.838Z,2.70
2023-01-08T11:31:03.951Z,2.37
2023-01-08T11:33:34.141Z,2.80
2023-01-08T11:36:18.771Z,2.30
2023-01-08T11:38:45.147Z,2.50
2023-01-08T11:41:11.512Z,2.30
2023-01-08T11:44:10.640Z,2.30
2023-01-08T11:46:52.496Z,2.60
2023-01-08T11:49:40.024Z,2.30
2023-01-08T11:53:00.336Z,2.37
2023-01-08T11:55:40.758Z,2.07
2023-01-08T11:58:28.282Z,2.03
2023-01-08T12:01:11.087Z,2.00
2023-01-08T12:03:44.154Z,2.53
2023-01-08T12:06:45.083Z,1.90
2023-01-08T12:09:43.192Z,2.20
2023-01-08T12:12:29.396Z,1.60
2023-01-08T12:15:14.457Z,2.30
2023-01-08T12:18:19.451Z,2.03
2023-01-08T12:21:03.050Z,2.00
2023-01-08T12:23:47.624Z,1.80
2023-01-08T12:26:27.690Z,1.60
2023-01-08T12:28:57.037Z,1.90
2023-01-08T12:31:44.278Z,1.70
2023-01-08T12:34:18.969Z,1.80
2023-01-08T12:36:54.137Z,1.60
2023-01-08T12:39:30.029Z,1.83
2023-01-08T12:42:07.885Z,1.90
2023-01-08T12:44:34.732Z,1.60
2023-01-08T12:47:03.668Z,1.87
2023-01-08T12:49:45.559Z,1.47
2023-01-08T12:52:31.021Z,1.70
2023-01-08T12:55:22.298Z,1.50
2023-01-08T12:58:19.276Z,1.70
2023-01-08T13:01:00.838Z,1.20
2023-01-08T13:03:29.718Z,1.50
2023-01-08T13:06:12.133Z,1.80
2023-01-08T13:08:41.415Z,1.80
2023-01-08T13:11:09.913Z,1.67
2023-01-08T13:13:45.022Z,1.80
2023-01-08T13:16:11.339Z,1.77
2023-01-08T13:18:38.647Z,2.40
2023-01-08T13:21:06.276Z,2.00
2023-01-08T13:23:38.312Z,2.10
2023-01-08T13:26:06.883Z,1.93
2023-01-08T13:28:44.764Z,1.63
2023-01-08T13:31:20.333Z,1.87
2023-01-08T13:33:48.651Z,1.47
2023-01-08T13:36:30.714Z,1.97
2023-01-08T13:39:09.889Z,1.73
2023-01-08T13:41:46.099Z,1.87
2023-01-08T13:44:29.013Z,1.90
2023-01-08T13:47:02.279Z,1.90
2023-01-08T13:49:51.201Z,2.10
2023-01-08T13:52:42.148Z,1.83
2023-01-08T13:55:28.705Z,1.57
2023-01-08T13:58:02.011Z,1.90
2023-01-08T14:00:38.393Z,1.73
2023-01-08T14:03:04.844Z,1.90
2023-01-08T14:05:36.856Z,1.93
2023-01-08T14:08:03.278Z,1.90
2023-01-08T14:10:30.663Z,2.00
2023-01-08T14:13:08.613Z,1.50
2023-01-08T14:15:35.573Z,1.87
2023-01-08T14:18:04.067Z,1.60
2023-01-08T14:20:33.866Z,1.70
2023-01-08T14:23:02.336Z,1.73
2023-01-08T14:25:29.605Z,1.70
2023-01-08T14:28:02.652Z,1.57
2023-01-08T14:30:29.916Z,1.57
2023-01-08T14:32:57.765Z,1.80
2023-01-08T14:35:32.424Z,1.73
2023-01-08T14:38:00.559Z,1.57
2023-01-08T14:40:35.346Z,1.90
2023-01-08T14:43:08.087Z,2.37
2023-01-08T14:45:35.241Z,1.50
2023-01-08T14:48:10.435Z,1.83
2023-01-08T14:50:40.715Z,1.43
2023-01-08T14:53:25.807Z,1.47
2023-01-08T14:55:55.342Z,1.40
2023-01-08T14:58:28.055Z,1.83
2023-01-08T15:01:00.926Z,1.30
2023-01-08T15:03:34.969Z,2.40
2023-01-08T15:06:01.834Z,1.77
2023-01-08T15:08:38.466Z,1.17
2023-01-08T15:11:15.383Z,1.50
2023-01-08T15:13:41.913Z,1.83
2023-01-08T15:16:31.281Z,1.50
2023-01-08T15:19:19.262Z,1.63
2023-01-08T15:21:48.418Z,1.77
2023-01-08T15:24:25.026Z,1.53
2023-01-08T15:26:52.447Z,2.00
2023-01-08T15:29:33.348Z,1.77
2023-01-08T15:32:14.761Z,2.10
2023-01-08T15:34:42.507Z,1.93
2023-01-08T15:37:08.989Z,1.90
2023-01-08T15:39:35.391Z,2.10
2023-01-08T15:42:36.240Z,1.93
2023-01-08T15:45:03.837Z,1.93
2023-01-08T15:47:30.407Z,1.90
2023-01-08T15:49:56.729Z,1.90
2023-01-08T15:52:29.561Z,2.20
2023-01-08T15:54:59.975Z,2.50
2023-01-08T15:57:26.972Z,1.90
2023-01-08T15:59:53.546Z,1.60
2023-01-08T16:02:20.994Z,1.60
2023-01-08T16:04:53.495Z,1.80
2023-01-08T16:07:20.276Z,1.60
2023-01-08T16:09:46.867Z,1.90
2023-01-08T16:12:13.513Z,1.80
2023-01-08T16:14:39.880Z,2.00
2023-01-08T16:17:07.655Z,2.23
2023-01-08T16:19:34.068Z,2.20
2023-01-08T16:22:00.716Z,2.00
2023-01-08T16:24:27.035Z,2.23
2023-01-08T16:26:53.393Z,2.07
2023-01-08T16:29:19.889Z,2.57
2023-01-08T16:31:47.529Z,2.07
2023-01-08T16:34:15.296Z,2.60
2023-01-08T16:36:41.754Z,2.23
2023-01-08T16:39:08.169Z,2.70
2023-01-08T16:41:35.285Z,2.20
2023-01-08T16:44:01.666Z,2.80
2023-01-08T16:46:29.432Z,2.63
2023-01-08T16:48:55.829Z,3.00
2023-01-08T16:51:22.499Z,2.60
2023-01-08T16:53:48.898Z,2.20
2023-01-08T16:56:15.257Z,2.33
2023-01-08T16:58:41.635Z,2.30
2023-01-08T17:01:10.710Z,2.50
2023-01-08T17:03:38.079Z,2.70
2023-01-08T17:06:09.281Z,2.57
2023-01-08T17:08:40.183Z,3.37
2023-01-08T17:11:11.982Z,2.53
2023-01-08T17:13:38.547Z,2.30
2023-01-08T17:16:10.569Z,2.23
2023-01-08T17:18:37.377Z,2.53
2023-01-08T17:21:04.943Z,2.63
2023-01-08T17:23:31.837Z,3.17
2023-01-08T17:26:00.330Z,2.33
2023-01-08T17:28:30.504Z,2.47
2023-01-08T17:31:14.960Z,2.53
2023-01-08T17:33:41.812Z,2.23
2023-01-08T17:36:19.594Z,2.30
2023-01-08T17:38:53.406Z,3.10
2023-01-08T17:41:40.028Z,2.53
2023-01-08T17:44:07.711Z,2.57
2023-01-08T17:46:35.719Z,2.60
2023-01-08T17:49:04.220Z,2.53
2023-01-08T17:51:32.249Z,2.60
2023-01-08T17:53:58.674Z,3.70
2023-01-08T17:56:25.398Z,4.93
2023-01-08T17:58:51.982Z,2.67
2023-01-08T18:01:19.219Z,3.90
2023-01-08T18:03:46.087Z,3.73
2023-01-08T18:06:13.062Z,3.37
2023-01-08T18:08:40.597Z,3.20
2023-01-08T18:11:08.815Z,2.97
2023-01-08T18:13:35.336Z,2.57
2023-01-08T18:16:03.425Z,2.20
2023-01-08T18:18:30.154Z,2.17
2023-01-08T18:20:56.515Z,3.07
2023-01-08T18:23:22.893Z,2.50
2023-01-08T18:25:49.219Z,2.50
2023-01-08T18:28:15.743Z,2.40
2023-01-08T18:30:42.886Z,2.60
2023-01-08T18:33:09.330Z,2.00
2023-01-08T18:35:35.660Z,2.17
2023-01-08T18:38:02.032Z,1.70
2023-01-08T18:40:28.404Z,1.70
2023-01-08T18:42:54.775Z,1.43
2023-01-08T18:45:21.187Z,1.40
2023-01-08T18:47:47.564Z,1.37
2023-01-08T18:50:13.944Z,1.60
2023-01-08T18:52:41.932Z,1.00
2023-01-08T18:55:08.616Z,1.93
2023-01-08T18:57:34.967Z,1.27
2023-01-08T19:00:03.364Z,1.27
2023-01-08T19:02:38.790Z,1.43
2023-01-08T19:05:05.641Z,1.83
2023-01-08T19:07:32.188Z,1.53
2023-01-08T19:09:58.599Z,1.40
2023-01-08T19:12:27.518Z,1.50
2023-01-08T19:14:54.586Z,1.43
2023-01-08T19:17:20.914Z,1.53
2023-01-08T19:19:47.284Z,1.27
2023-01-08T19:22:13.656Z,1.50
2023-01-08T19:24:40.168Z,1.20
2023-01-08T19:27:06.642Z,1.57
2023-01-08T19:29:33.028Z,1.30
2023-01-08T19:31:59.433Z,1.50
2023-01-08T19:34:26.219Z,1.60
2023-01-08T19:36:54.049Z,1.90
2023-01-08T19:39:20.454Z,2.40
2023-01-08T19:42:05.564Z,2.40
2023-01-08T19:44:32.028Z,4.20
2023-01-08T19:46:58.378Z,3.20
2023-01-08T19:49:25.595Z,2.47
2023-01-08T19:51:52.584Z,3.20
2023-01-08T19:54:22.117Z,3.30
2023-01-08T19:56:49.110Z,3.30
2023-01-08T19:59:15.579Z,3.10
2023-01-08T20:01:42.996Z,3.20
2023-01-08T20:04:10.097Z,4.43
2023-01-08T20:06:37.000Z,4.50
2023-01-08T20:09:04.315Z,4.43
2023-01-08T20:11:30.655Z,3.10
2023-01-08T20:14:00.799Z,1.90
2023-01-08T20:16:28.855Z,2.37
2023-01-08T20:18:57.862Z,2.03
2023-01-08T20:21:24.403Z,2.00
2023-01-08T20:24:00.539Z,1.83
2023-01-08T20:26:28.417Z,2.33
2023-01-08T20:28:56.576Z,1.80
2023-01-08T20:31:26.163Z,2.10
2023-01-08T20:33:53.072Z,1.70
2023-01-08T20:36:22.421Z,2.20
2023-01-08T20:38:53.696Z,2.00
2023-01-08T20:41:20.362Z,2.03
2023-01-08T20:43:47.462Z,2.27
2023-01-08T20:46:14.705Z,2.20
2023-01-08T20:48:47.709Z,2.40
2023-01-08T20:51:15.415Z,2.30
2023-01-08T20:53:42.094Z,2.23
2023-01-08T20:56:11.127Z,2.60
2023-01-08T20:58:39.381Z,2.13
2023-01-08T21:01:12.211Z,2.07
2023-01-08T21:03:39.861Z,2.40
2023-01-08T21:06:07.924Z,2.47
2023-01-08T21:08:34.931Z,2.30
2023-01-08T21:11:03.791Z,2.60
2023-01-08T21:13:30.635Z,2.37
2023-01-08T21:15:59.551Z,3.20
2023-01-08T21:18:26.787Z,2.27
2023-01-08T21:20:58.968Z,2.57
2023-01-08T21:23:25.516Z,2.50
2023-01-08T21:25:56.500Z,2.30
2023-01-08T21:28:24.075Z,1.97
2023-01-08T21:30:50.427Z,2.00
2023-01-08T21:33:16.789Z,1.83
2023-01-08T21:35:43.568Z,1.90
2023-01-08T21:38:09.962Z,1.80
2023-01-08T21:40:36.404Z,2.30
2023-01-08T21:43:21.404Z,2.23
2023-01-08T21:46:03.281Z,2.30
2023-01-08T21:48:29.842Z,1.80
2023-01-08T21:50:56.245Z,1.80
2023-01-08T21:53:31.471Z,2.03
2023-01-08T21:56:03.539Z,1.90
2023-01-08T21:58:31.575Z,1.60
2023-01-08T22:00:58.302Z,1.97
2023-01-08T22:03:25.105Z,1.70
2023-01-08T22:06:03.590Z,1.70
2023-01-08T22:08:31.266Z,1.73
2023-01-08T22:10:59.296Z,1.83
2023-01-08T22:13:25.946Z,1.73
2023-01-08T22:16:09.742Z,1.60
2023-01-08T22:18:36.952Z,1.93
2023-01-08T22:21:08.772Z,2.03
2023-01-08T22:23:35.962Z,1.63
2023-01-08T22:26:11.208Z,1.80
2023-01-08T22:28:39.221Z,1.63
2023-01-08T22:31:07.673Z,2.10
2023-01-08T22:33:34.095Z,2.30
2023-01-08T22:36:02.989Z,1.73
2023-01-08T22:38:29.409Z,1.87
2023-01-08T22:40:55.811Z,2.00
2023-01-08T22:43:22.220Z,2.47
2023-01-08T22:45:59.194Z,1.60
2023-01-08T22:48:26.987Z,2.00
2023-01-08T22:50:53.975Z,2.10
2023-01-08T22:53:20.632Z,1.73
2023-01-08T22:55:47.732Z,1.70
2023-01-08T22:58:15.099Z,1.60
2023-01-08T23:00:42.112Z,2.17
2023-01-08T23:03:08.988Z,1.83
2023-01-08T23:05:36.143Z,1.73
2023-01-08T23:08:02.905Z,1.80
2023-01-08T23:10:29.554Z,2.00
2023-01-08T23:12:55.979Z,1.77
2023-01-08T23:15:23.160Z,1.50
2023-01-08T23:17:52.489Z,1.80
2023-01-08T23:20:20.641Z,1.60
2023-01-08T23:22:47.985Z,1.70
2023-01-08T23:25:14.935Z,1.67
2023-01-08T23:27:41.361Z,1.80
2023-01-08T23:30:08.263Z,1.73
2023-01-08T23:32:34.620Z,1.70
2023-01-08T23:35:01.028Z,1.70
2023-01-08T23:37:27.355Z,2.13
2023-01-08T23:39:53.800Z,2.23
2023-01-08T23:42:20.162Z,1.80
2023-01-08T23:44:48.989Z,1.60
2023-01-08T23:47:15.464Z,1.80
2023-01-08T23:49:41.835Z,2.00
2023-01-08T23:52:08.268Z,2.30
2023-01-08T23:54:35.873Z,1.60
2023-01-08T23:57:02.327Z,1.80
2023-01-08T23:59:28.851Z,1.77
